Commerce, GA

5:10 AM EDT on September 02, 2015 (GMT -0400)
Jefferson | | Change Station
CLOSE
Current Station
Airport
Location: Jefferson,
Elevation: 951 ft
Nearby Weather Stations

Elev 951 ft 34.18 °N, 83.56 °W | Updated 15 minutes ago

Clear
Clear
68 °F
Feels Like 68 °F
N
0
Wind Variable Wind from North

Today
High -- | Low -- °F
--% Chance of Precip.
Yesterday
High -- | Low -- °F
Precip. -- in
7:08 AM 7:59 PM
Waning Gibbous, 82% visible
Pressure 30.11 in
Visibility 7.0 miles
Clouds Clear
Dew Point 68 °F
Humidity 100%
Rainfall 0.00 in
Snow Depth Not available.
UV 0 out of 12
Pollen 8.20 out of 12
Air Quality Not available.
Flu Activity Not available.
METAR K19A 020855Z AUTO 00000KT 7SM CLR 20/20 A3011 RMK AO2
Pressure 30.11 in
Visibility 7.0 miles
Clouds Clear
Dew Point 68 °F
Humidity 100%
Rainfall 0.00 in
Snow Depth Not available.
UV 0 out of 12
Pollen 8.20 out of 12
Air Quality Not available.
Flu Activity Not available.
METAR K19A 020855Z AUTO 00000KT 7SM CLR 20/20 A3011 RMK AO2

10-Day Weather Forecast

×

Almanac

Astronomy

Sep. 02, 2015 Rise Set
Actual Time
Civil Twilight
Nautical Twilight
Astronomical Twilight
Moon
Length of Visible Light
Length of Day
Tomorrow will be .
, % of the Moon is Illuminated

Today's Extremes

State Highs State Lows

Community

WunderPhotos

Upload Photos

1,851,729 photos uploaded!

WunderBlogs® & News

Nearby

Air Quality

  Air Quality AQ Index Pollutant
Not available.

Snow Depth

Station Depth Elevation

Earthquake Activity

City Distance Mag. Time & Date
Minimum magnitude displayed is 2.5.

Coastal Water Temperatures

Place Temperature

Stations

Nearby Weather Stations

Station Location Temp. Windchill Dew Point Humidity Wind Precip. Elev Updated Type